Almyros — 9HA2510 — position and weather

sailwx.info

Track history (hours):
 
Tides and Currents Weather Stations Pressure Air Temp Water Temp Dewpoint Dewpoint Depression Visibility Wind Speed Wind Dir Waves Ship Positions

Almyros

Last reported at 2017-Feb-07 02:24 UTC. Time now 2017-Feb-26 06:05 UTC.
Position N 31°05' E 122°18'.
Warning: this ship's position is 19 days out of date.

Length 189 m; draft 6.5 m.

Type: Cargo ship. MMSI: 248779000.

Date/timePositionNaut miles runAvg speedWind from/ knotsBaromVisibWave heightAir tempDewpointWater temp
2017-Feb-07 02:24N 31°05' E 122°18'1212.5
2017-Feb-07 01:29N 31°04' E 122°04'1212.6
2017-Feb-07 00:33N 31°09' E 121°52'1211.8
2017-Feb-06 23:33N 31°18' E 121°43'1111.3
2017-Feb-06 22:33N 31°24' E 121°32'1010.4
2017-Feb-06 21:33N 31°31' E 121°23'1413.7
2017-Feb-06 20:33N 31°41' E 121°11'3912.9
2017-Feb-06 17:32N 32°01' E 120°32'  
2017-Feb-03 07:27N 32°02' E 120°29'34 6.8
2017-Feb-03 02:24N 31°45' E 121°05'  
Track history (hours):
 
Tides and Currents Weather Stations Pressure Air Temp Water Temp Dewpoint Dewpoint Depression Visibility Wind Speed Wind Dir Waves Ship Positions

Almyros

Last reported at 2017-Feb-07 02:24 UTC. Time now 2017-Feb-26 06:05 UTC.
Position N 31°05' E 122°18'.
Warning: this ship's position is 19 days out of date.

Length 189 m; draft 6.5 m.

Type: Cargo ship. MMSI: 248779000.

Date/timePositionNaut miles runAvg speedWind from/ knotsBaromVisibWave heightAir tempDewpointWater temp
2017-Feb-07 02:24N 31°05' E 122°18'1212.5
2017-Feb-07 01:29N 31°04' E 122°04'1212.6
2017-Feb-07 00:33N 31°09' E 121°52'1211.8
2017-Feb-06 23:33N 31°18' E 121°43'1111.3
2017-Feb-06 22:33N 31°24' E 121°32'1010.4
2017-Feb-06 21:33N 31°31' E 121°23'1413.7
2017-Feb-06 20:33N 31°41' E 121°11'3912.9
2017-Feb-06 17:32N 32°01' E 120°32'  
2017-Feb-03 07:27N 32°02' E 120°29'34 6.8
2017-Feb-03 02:24N 31°45' E 121°05'  

Dump ship's entire track history